Time;durP1;ratioP1;P1;durP2;ratioP2;P2;SDS_P1;SDS_P2;PMS_P1;PMS_P2;Temp;Humidity;BMP_temperature;BMP_pressure;BME280_temperature;BME280_humidity;BME280_pressure;Samples;Min_cycle;Max_cycle;Signal;HPM_P1;HPM_P2
2022/04/07 00:00:19;;;;;;;;;;;18.70;57.70;;;;;;5035487;28;1483;-71
2022/04/07 00:02:45;;;;;;;;;;;18.70;57.80;;;;;;5053367;28;1952;-71
2022/04/07 00:05:11;;;;;;;;;;;18.70;57.80;;;;;;5054036;28;1652;-71
2022/04/07 00:07:36;;;;;;;;;;;18.70;58.40;;;;;;5053309;28;1441;-71
2022/04/07 00:10:02;;;;;;;;;;;18.70;57.80;;;;;;5053783;28;1385;-70
2022/04/07 00:12:27;;;;;;;;;;;18.70;57.80;;;;;;5053831;28;1095;-71
2022/04/07 00:14:53;;;;;;;;;;;18.70;57.80;;;;;;5053202;28;1067;-72
2022/04/07 00:17:19;;;;;;;;;;;18.70;57.80;;;;;;5053028;28;1244;-71
2022/04/07 00:19:44;;;;;;;;;;;18.70;57.80;;;;;;5035646;28;1261;-71
2022/04/07 00:22:10;;;;;;;;;;;18.70;57.90;;;;;;5053022;28;1404;-71
2022/04/07 00:24:35;;;;;;;;;;;18.70;57.90;;;;;;5053145;28;1902;-71
2022/04/07 00:27:01;;;;;;;;;;;18.70;57.90;;;;;;5052737;28;1349;-71
2022/04/07 00:29:26;;;;;;;;;;;18.70;57.90;;;;;;5052994;28;1067;-72
2022/04/07 00:31:56;;;;;;;;;;;18.70;57.90;;;;;;5034418;28;1351;-72
2022/04/07 00:34:22;;;;;;;;;;;18.70;57.90;;;;;;5016035;28;1292;-72
2022/04/07 00:36:47;;;;;;;;;;;18.60;57.90;;;;;;5030229;28;1280;-71
2022/04/07 00:39:13;;;;;;;;;;;18.60;57.90;;;;;;5035178;28;1346;-72
2022/04/07 00:41:39;;;;;;;;;;;18.60;57.90;;;;;;5052763;28;1357;-72
2022/04/07 00:44:08;;;;;;;;;;;18.60;57.90;;;;;;5052717;28;1894;-72
2022/04/07 00:46:34;;;;;;;;;;;18.60;57.90;;;;;;5035528;28;1255;-72
2022/04/07 00:48:59;;;;;;;;;;;18.60;57.90;;;;;;5035182;28;1135;-72
2022/04/07 00:51:25;;;;;;;;;;;18.60;57.90;;;;;;5034923;28;1277;-73
2022/04/07 00:53:50;;;;;;;;;;;18.60;57.90;;;;;;5035020;28;1080;-72
2022/04/07 00:56:15;;;;;;;;;;;18.60;57.90;;;;;;5052454;28;1084;-72
2022/04/07 00:58:41;;;;;;;;;;;18.60;58.00;;;;;;5014991;28;1298;-73
2022/04/07 01:01:08;;;;;;;;;;;18.60;58.00;;;;;;5047923;28;1698;-73
2022/04/07 01:03:34;;;;;;;;;;;18.60;58.00;;;;;;5035226;28;1894;-73
2022/04/07 01:05:59;;;;;;;;;;;18.60;58.00;;;;;;5034632;28;1171;-73
2022/04/07 01:08:25;;;;;;;;;;;18.60;58.00;;;;;;5034910;28;1485;-72
2022/04/07 01:10:50;;;;;;;;;;;18.60;58.00;;;;;;5034414;28;1283;-72
2022/04/07 01:13:16;;;;;;;;;;;18.60;58.00;;;;;;5034728;28;1104;-71
2022/04/07 01:15:41;;;;;;;;;;;18.60;58.00;;;;;;5032185;28;1800;-71
2022/04/07 01:18:06;;;;;;;;;;;18.60;58.10;;;;;;5052373;28;1584;-72
2022/04/07 01:20:32;;;;;;;;;;;18.60;58.00;;;;;;5052406;28;1638;-72
2022/04/07 01:22:57;;;;;;;;;;;18.60;58.00;;;;;;5052214;28;1955;-71
2022/04/07 01:25:24;;;;;;;;;;;18.60;58.10;;;;;;5033088;28;1748;-72
2022/04/07 01:27:49;;;;;;;;;;;18.60;58.10;;;;;;5051419;28;878;-72
2022/04/07 01:30:14;;;;;;;;;;;18.60;58.70;;;;;;5034688;28;2018;-70
2022/04/07 01:32:41;;;;;;;;;;;18.60;58.10;;;;;;5052272;28;1114;-71
2022/04/07 01:35:07;;;;;;;;;;;18.60;58.10;;;;;;5049867;28;1057;-71
2022/04/07 01:37:32;;;;;;;;;;;18.60;58.10;;;;;;5052079;28;1126;-71
2022/04/07 01:39:58;;;;;;;;;;;18.60;58.10;;;;;;5034460;28;1230;-71
2022/04/07 01:42:24;;;;;;;;;;;18.60;58.10;;;;;;5034281;28;1308;-71
2022/04/07 01:44:49;;;;;;;;;;;18.60;58.00;;;;;;5038408;28;1948;-71
2022/04/07 01:47:17;;;;;;;;;;;18.60;58.00;;;;;;5038181;28;867;-72
2022/04/07 01:49:43;;;;;;;;;;;18.60;57.90;;;;;;5038280;28;1303;-71
2022/04/07 01:52:08;;;;;;;;;;;18.70;57.90;;;;;;5037764;28;1190;-71
2022/04/07 01:54:34;;;;;;;;;;;18.70;57.80;;;;;;5055966;28;1332;-71
2022/04/07 01:56:59;;;;;;;;;;;18.70;57.70;;;;;;5037652;28;1310;-71
2022/04/07 01:59:26;;;;;;;;;;;18.80;57.70;;;;;;5049005;28;1387;-71
2022/04/07 02:01:51;;;;;;;;;;;18.80;57.60;;;;;;5049458;28;1317;-74
2022/04/07 02:04:16;;;;;;;;;;;18.80;57.50;;;;;;5037897;28;1898;-73
2022/04/07 02:06:42;;;;;;;;;;;18.90;57.40;;;;;;5037702;28;1147;-74
2022/04/07 02:09:07;;;;;;;;;;;18.90;57.40;;;;;;5055790;28;1044;-74
2022/04/07 02:11:33;;;;;;;;;;;18.90;57.30;;;;;;5037334;28;1324;-73
2022/04/07 02:13:58;;;;;;;;;;;18.90;57.20;;;;;;5055699;28;1083;-74
2022/04/07 02:16:24;;;;;;;;;;;18.90;57.10;;;;;;5038352;28;1108;-73
2022/04/07 02:18:49;;;;;;;;;;;18.90;57.10;;;;;;5055776;28;1111;-73
2022/04/07 02:21:14;;;;;;;;;;;19.00;57.10;;;;;;5064008;28;1392;-73
2022/04/07 02:23:42;;;;;;;;;;;19.00;57.10;;;;;;5060653;28;1902;-73
2022/04/07 02:26:11;;;;;;;;;;;19.00;57.00;;;;;;5039377;28;1284;-73
2022/04/07 02:28:36;;;;;;;;;;;19.00;57.60;;;;;;5046170;28;1282;-73
2022/04/07 02:31:02;;;;;;;;;;;19.00;56.90;;;;;;5064676;28;1283;-73
2022/04/07 02:33:27;;;;;;;;;;;19.00;56.90;;;;;;5065415;28;1219;-73
2022/04/07 02:35:53;;;;;;;;;;;19.00;56.90;;;;;;5064990;28;1216;-73
2022/04/07 02:38:18;;;;;;;;;;;19.00;56.90;;;;;;5063893;28;1278;-73
2022/04/07 02:40:44;;;;;;;;;;;19.00;56.90;;;;;;5066359;28;1386;-73
2022/04/07 02:43:09;;;;;;;;;;;19.00;57.50;;;;;;5042284;28;1897;-70
2022/04/07 02:45:34;;;;;;;;;;;19.00;56.80;;;;;;5055015;28;894;-74
2022/04/07 02:48:00;;;;;;;;;;;19.00;56.80;;;;;;5037122;28;1139;-74
2022/04/07 02:50:25;;;;;;;;;;;19.10;56.90;;;;;;5050062;28;2275;-74
2022/04/07 02:52:51;;;;;;;;;;;19.00;56.80;;;;;;5039738;28;1140;-74
2022/04/07 02:55:16;;;;;;;;;;;19.00;56.80;;;;;;5054007;28;1184;-74
2022/04/07 02:57:42;;;;;;;;;;;19.10;56.90;;;;;;5054456;28;1056;-74
2022/04/07 03:00:08;;;;;;;;;;;19.10;56.90;;;;;;5037169;28;1355;-74
2022/04/07 03:02:33;;;;;;;;;;;19.10;56.80;;;;;;5020337;28;1183;-74
2022/04/07 03:04:59;;;;;;;;;;;19.10;56.80;;;;;;5054602;28;1969;-74
2022/04/07 03:07:24;;;;;;;;;;;19.10;56.80;;;;;;5054489;28;1475;-74
2022/04/07 03:09:50;;;;;;;;;;;19.10;56.80;;;;;;5036616;28;1099;-74
2022/04/07 03:12:15;;;;;;;;;;;19.10;56.80;;;;;;5036531;28;1240;-74
2022/04/07 03:14:41;;;;;;;;;;;19.10;56.80;;;;;;5036700;28;1084;-74
2022/04/07 03:17:06;;;;;;;;;;;19.10;56.80;;;;;;5036371;28;1131;-74
2022/04/07 03:19:32;;;;;;;;;;;19.10;56.80;;;;;;5054411;28;1412;-74
2022/04/07 03:21:57;;;;;;;;;;;19.10;56.70;;;;;;5054137;28;1420;-74
2022/04/07 03:24:24;;;;;;;;;;;19.10;56.70;;;;;;5036283;28;1910;-74
2022/04/07 03:26:50;;;;;;;;;;;19.10;56.70;;;;;;5054060;28;1088;-74
2022/04/07 03:29:16;;;;;;;;;;;19.10;56.70;;;;;;5036516;28;1147;-74
2022/04/07 03:31:41;;;;;;;;;;;19.10;56.70;;;;;;5054001;28;1335;-74
2022/04/07 03:34:07;;;;;;;;;;;19.10;56.70;;;;;;5054125;28;1115;-74
2022/04/07 03:36:32;;;;;;;;;;;19.10;56.70;;;;;;5053733;28;1136;-74
2022/04/07 03:38:57;;;;;;;;;;;19.10;56.70;;;;;;5036171;28;1080;-74
2022/04/07 03:41:23;;;;;;;;;;;19.10;56.70;;;;;;5053733;28;1246;-74
2022/04/07 03:43:49;;;;;;;;;;;19.10;56.70;;;;;;5019737;28;1902;-74
2022/04/07 03:46:21;;;;;;;;;;;19.10;56.70;;;;;;5035826;28;1276;-74
2022/04/07 03:48:47;;;;;;;;;;;19.10;56.60;;;;;;5053930;28;839;-74
2022/04/07 03:51:13;;;;;;;;;;;19.10;56.60;;;;;;5036284;28;1307;-75
2022/04/07 03:53:38;;;;;;;;;;;19.10;56.70;;;;;;5053884;28;792;-74
2022/04/07 03:56:04;;;;;;;;;;;19.10;56.60;;;;;;5035878;28;946;-75
2022/04/07 03:58:30;;;;;;;;;;;19.10;56.60;;;;;;5053939;28;1065;-75
2022/04/07 04:00:56;;;;;;;;;;;19.10;56.60;;;;;;5019748;28;1209;-74
2022/04/07 04:03:22;;;;;;;;;;;19.10;56.60;;;;;;5053873;28;1898;-74
2022/04/07 04:05:48;;;;;;;;;;;19.10;56.60;;;;;;5053190;28;855;-75
2022/04/07 04:08:13;;;;;;;;;;;19.10;56.60;;;;;;5052917;28;859;-73
2022/04/07 04:10:38;;;;;;;;;;;19.10;56.60;;;;;;5053367;28;1206;-74
2022/04/07 04:13:04;;;;;;;;;;;19.10;56.60;;;;;;5036074;28;925;-74
2022/04/07 04:15:29;;;;;;;;;;;19.10;56.60;;;;;;5053429;28;1140;-74
2022/04/07 04:17:55;;;;;;;;;;;19.10;56.60;;;;;;5053427;28;922;-73
2022/04/07 04:20:20;;;;;;;;;;;19.10;56.60;;;;;;5053390;28;1227;-74
2022/04/07 04:22:45;;;;;;;;;;;19.10;56.60;;;;;;5053143;28;968;-74
2022/04/07 04:25:11;;;;;;;;;;;19.10;56.60;;;;;;5035467;28;1961;-74
2022/04/07 04:27:36;;;;;;;;;;;19.10;56.60;;;;;;5035128;28;1603;-74
2022/04/07 04:30:02;;;;;;;;;;;19.10;56.60;;;;;;5053302;28;1243;-74
2022/04/07 04:32:27;;;;;;;;;;;19.10;56.60;;;;;;5035432;28;1344;-74
2022/04/07 04:34:53;;;;;;;;;;;19.10;56.60;;;;;;5035328;28;884;-74
2022/04/07 04:37:21;;;;;;;;;;;19.10;56.60;;;;;;5034958;28;1123;-74
2022/04/07 04:39:46;;;;;;;;;;;19.10;56.60;;;;;;5053188;28;941;-74
2022/04/07 04:42:12;;;;;;;;;;;19.10;56.60;;;;;;5035321;28;1188;-74
2022/04/07 04:44:37;;;;;;;;;;;19.10;56.60;;;;;;5053007;28;1947;-74
2022/04/07 04:47:03;;;;;;;;;;;19.10;56.60;;;;;;5052705;28;843;-74
2022/04/07 04:49:28;;;;;;;;;;;19.10;56.60;;;;;;5054603;28;959;-73
2022/04/07 04:51:54;;;;;;;;;;;19.10;56.60;;;;;;5055827;28;1203;-73
2022/04/07 04:54:19;;;;;;;;;;;19.10;56.60;;;;;;5035172;28;1869;-73
2022/04/07 04:56:44;;;;;;;;;;;19.10;56.60;;;;;;5051459;28;1096;-74
2022/04/07 04:59:10;;;;;;;;;;;19.10;56.60;;;;;;5035008;28;1037;-73
2022/04/07 05:01:35;;;;;;;;;;;19.10;56.60;;;;;;5052890;28;1251;-72
2022/04/07 05:04:01;;;;;;;;;;;19.10;56.60;;;;;;5053342;28;1890;-72
2022/04/07 05:06:26;;;;;;;;;;;19.10;56.60;;;;;;5052569;28;701;-72
2022/04/07 05:08:51;;;;;;;;;;;19.10;56.60;;;;;;5053269;28;1029;-73
2022/04/07 05:11:17;;;;;;;;;;;19.10;56.60;;;;;;5053092;28;1278;-74
2022/04/07 05:13:42;;;;;;;;;;;19.10;56.60;;;;;;5051750;28;839;-72
2022/04/07 05:16:08;;;;;;;;;;;19.10;56.60;;;;;;5052557;28;1138;-73
2022/04/07 05:18:34;;;;;;;;;;;19.10;56.60;;;;;;5055006;28;839;-73
2022/04/07 05:20:59;;;;;;;;;;;19.10;56.60;;;;;;5056810;28;1293;-72
2022/04/07 05:23:24;;;;;;;;;;;19.10;56.60;;;;;;5056521;28;1996;-72
2022/04/07 05:25:50;;;;;;;;;;;19.10;56.60;;;;;;5056823;28;693;-69
2022/04/07 05:28:15;;;;;;;;;;;19.10;56.60;;;;;;5046371;28;1882;-67
2022/04/07 05:30:41;;;;;;;;;;;19.10;56.60;;;;;;5051379;28;1276;-67
2022/04/07 05:33:06;;;;;;;;;;;19.10;56.60;;;;;;5056587;28;1165;-70
2022/04/07 05:35:32;;;;;;;;;;;19.10;56.60;;;;;;5056508;28;887;-71
2022/04/07 05:37:58;;;;;;;;;;;19.20;56.60;;;;;;5054838;28;1158;-73
2022/04/07 05:40:23;;;;;;;;;;;19.10;56.60;;;;;;5056244;28;1204;-70
2022/04/07 05:42:49;;;;;;;;;;;19.10;56.60;;;;;;5056337;28;796;-70
2022/04/07 05:45:14;;;;;;;;;;;19.10;56.60;;;;;;5056372;28;1898;-71
2022/04/07 05:47:40;;;;;;;;;;;19.10;56.60;;;;;;5054472;28;920;-71
2022/04/07 05:50:05;;;;;;;;;;;19.10;56.60;;;;;;5056436;28;1208;-71
2022/04/07 05:52:31;;;;;;;;;;;19.20;56.60;;;;;;5055967;28;1170;-71
2022/04/07 05:54:56;;;;;;;;;;;19.10;56.50;;;;;;5038502;28;804;-71
2022/04/07 05:57:25;;;;;;;;;;;19.10;56.60;;;;;;5055753;28;879;-72
2022/04/07 05:59:50;;;;;;;;;;;19.10;56.60;;;;;;5038434;28;1042;-71
2022/04/07 06:02:16;;;;;;;;;;;19.10;56.60;;;;;;5055859;28;1203;-72
2022/04/07 06:04:41;;;;;;;;;;;19.10;56.60;;;;;;5055725;28;1874;-71
2022/04/07 06:07:06;;;;;;;;;;;19.10;56.50;;;;;;5055821;28;919;-71
2022/04/07 06:09:34;;;;;;;;;;;19.10;56.50;;;;;;5055803;28;959;-71
2022/04/07 06:11:59;;;;;;;;;;;19.10;56.60;;;;;;5074829;22;1949;-69
2022/04/07 06:14:25;;;;;;;;;;;19.10;56.60;;;;;;5054245;28;763;-70
2022/04/07 06:16:50;;;;;;;;;;;19.10;56.60;;;;;;5055374;28;1182;-70
2022/04/07 06:19:16;;;;;;;;;;;19.10;56.60;;;;;;5055693;28;894;-69
2022/04/07 06:21:43;;;;;;;;;;;19.10;56.60;;;;;;5055516;28;1219;-70
2022/04/07 06:24:08;;;;;;;;;;;19.10;56.60;;;;;;5055698;28;1906;-70
2022/04/07 06:26:34;;;;;;;;;;;19.10;56.60;;;;;;5037563;28;886;-69
2022/04/07 06:28:59;;;;;;;;;;;19.10;56.60;;;;;;5055000;28;783;-69
2022/04/07 06:31:24;;;;;;;;;;;19.20;56.60;;;;;;5054875;28;1212;-70
2022/04/07 06:33:50;;;;;;;;;;;19.10;56.60;;;;;;5055267;28;934;-69
2022/04/07 06:36:15;;;;;;;;;;;19.10;56.60;;;;;;5055047;28;1230;-69
2022/04/07 06:38:41;;;;;;;;;;;19.10;56.60;;;;;;5055358;28;925;-67
2022/04/07 06:41:06;;;;;;;;;;;19.10;56.60;;;;;;5055324;28;1215;-69
2022/04/07 06:43:32;;;;;;;;;;;19.10;56.60;;;;;;5055170;28;1890;-71
2022/04/07 06:45:57;;;;;;;;;;;19.10;56.60;;;;;;5054982;28;1056;-68
2022/04/07 06:48:23;;;;;;;;;;;19.10;56.60;;;;;;5055124;28;1013;-69
2022/04/07 06:50:48;;;;;;;;;;;19.10;56.60;;;;;;5055222;28;1212;-69
2022/04/07 06:53:13;;;;;;;;;;;19.10;56.60;;;;;;5055044;28;792;-69
2022/04/07 06:55:39;;;;;;;;;;;19.20;56.60;;;;;;5054886;28;788;-69
2022/04/07 06:58:06;;;;;;;;;;;19.20;56.50;;;;;;5037200;28;1077;-69
2022/04/07 07:00:32;;;;;;;;;;;19.30;56.40;;;;;;5037231;28;1216;-69
2022/04/07 07:02:58;;;;;;;;;;;19.30;56.30;;;;;;5054870;28;870;-69
2022/04/07 07:05:24;;;;;;;;;;;19.40;56.20;;;;;;5036825;28;1903;-69
2022/04/07 07:07:49;;;;;;;;;;;19.50;56.10;;;;;;5054563;28;918;-69
2022/04/07 07:10:19;;;;;;;;;;;19.60;55.90;;;;;;5054716;28;795;-70
2022/04/07 07:12:44;;;;;;;;;;;19.70;55.80;;;;;;5054305;28;1325;-69
2022/04/07 07:15:10;;;;;;;;;;;19.80;55.50;;;;;;5054632;28;883;-69
2022/04/07 07:17:38;;;;;;;;;;;19.90;55.30;;;;;;5054069;28;1206;-69
2022/04/07 07:20:04;;;;;;;;;;;20.00;55.20;;;;;;5036834;28;966;-69
2022/04/07 07:22:30;;;;;;;;;;;20.10;55.00;;;;;;5051004;28;2145;-69
2022/04/07 07:24:55;;;;;;;;;;;20.20;54.80;;;;;;5053267;28;1973;-69
2022/04/07 07:27:21;;;;;;;;;;;20.20;54.60;;;;;;5044695;28;2225;-70
2022/04/07 07:29:46;;;;;;;;;;;20.30;54.40;;;;;;5042848;28;1819;-68
2022/04/07 07:32:12;;;;;;;;;;;20.40;54.30;;;;;;5041462;28;1881;-70
2022/04/07 07:34:37;;;;;;;;;;;20.50;54.10;;;;;;5043496;28;1150;-69
2022/04/07 07:37:03;;;;;;;;;;;20.50;54.00;;;;;;5053375;28;1107;-69
2022/04/07 07:39:29;;;;;;;;;;;20.60;53.90;;;;;;5054246;28;792;-70
2022/04/07 07:41:54;;;;;;;;;;;20.60;53.80;;;;;;5053710;28;1273;-70
2022/04/07 07:44:19;;;;;;;;;;;20.60;53.70;;;;;;5054211;28;1879;-69
2022/04/07 07:46:45;;;;;;;;;;;20.70;53.70;;;;;;5053579;28;803;-70
2022/04/07 07:49:11;;;;;;;;;;;20.70;53.70;;;;;;5054074;28;1057;-69
2022/04/07 07:51:37;;;;;;;;;;;20.70;53.70;;;;;;5053817;28;1217;-70
2022/04/07 07:54:03;;;;;;;;;;;20.70;53.70;;;;;;5053944;28;871;-69
2022/04/07 07:56:29;;;;;;;;;;;20.70;53.70;;;;;;5053669;28;878;-69
2022/04/07 07:58:54;;;;;;;;;;;20.70;53.70;;;;;;5053771;28;708;-70
2022/04/07 08:01:19;;;;;;;;;;;20.70;53.70;;;;;;5052485;28;1330;-69
2022/04/07 08:03:45;;;;;;;;;;;20.70;53.60;;;;;;5053487;28;1981;-71
2022/04/07 08:06:10;;;;;;;;;;;20.70;53.60;;;;;;5053527;28;779;-71
2022/04/07 08:08:36;;;;;;;;;;;20.70;53.60;;;;;;5052467;28;815;-70
2022/04/07 08:11:01;;;;;;;;;;;20.70;53.70;;;;;;5052213;28;1286;-71
2022/04/07 08:13:27;;;;;;;;;;;20.70;53.70;;;;;;5053646;28;894;-71
2022/04/07 08:15:52;;;;;;;;;;;20.70;53.70;;;;;;5053304;28;1248;-71
2022/04/07 08:18:17;;;;;;;;;;;20.70;53.70;;;;;;5053308;28;902;-72
2022/04/07 08:20:43;;;;;;;;;;;20.60;53.70;;;;;;5035611;28;1234;-71
2022/04/07 08:23:09;;;;;;;;;;;20.60;53.80;;;;;;5053382;28;1906;-72
2022/04/07 08:25:34;;;;;;;;;;;20.60;53.80;;;;;;5035510;28;875;-70
2022/04/07 08:28:00;;;;;;;;;;;20.60;53.90;;;;;;5053243;28;784;-70
2022/04/07 08:30:25;;;;;;;;;;;20.60;53.90;;;;;;5035435;28;1219;-70
2022/04/07 08:32:50;;;;;;;;;;;20.60;54.00;;;;;;5053121;28;862;-70
2022/04/07 08:35:16;;;;;;;;;;;20.50;54.00;;;;;;5035639;28;1213;-70
2022/04/07 08:37:41;;;;;;;;;;;20.60;54.10;;;;;;5052853;28;1135;-71
2022/04/07 08:40:07;;;;;;;;;;;20.50;54.10;;;;;;5053162;28;887;-70
2022/04/07 08:42:36;;;;;;;;;;;20.50;54.10;;;;;;5053074;28;1181;-70
2022/04/07 08:45:01;;;;;;;;;;;20.50;54.20;;;;;;5053130;28;1961;-70
2022/04/07 08:47:27;;;;;;;;;;;20.50;54.20;;;;;;5053002;28;854;-70
2022/04/07 08:49:52;;;;;;;;;;;20.50;54.30;;;;;;5052014;28;701;-68
2022/04/07 08:52:18;;;;;;;;;;;20.50;54.30;;;;;;5041636;28;1263;-68
2022/04/07 08:54:44;;;;;;;;;;;20.40;54.40;;;;;;5052937;28;1080;-68
2022/04/07 08:57:09;;;;;;;;;;;20.40;54.70;;;;;;5052649;28;835;-66
2022/04/07 08:59:35;;;;;;;;;;;20.40;54.70;;;;;;5052940;28;803;-66
2022/04/07 09:02:03;;;;;;;;;;;20.40;54.60;;;;;;5018365;28;1589;-67
2022/04/07 09:04:30;;;;;;;;;;;20.40;54.70;;;;;;5035068;28;1898;-67
2022/04/07 09:06:56;;;;;;;;;;;20.40;54.70;;;;;;5052511;28;889;-66
2022/04/07 09:09:22;;;;;;;;;;;20.30;54.70;;;;;;5053132;28;847;-67
2022/04/07 09:11:54;;;;;;;;;;;20.30;54.70;;;;;;5052815;28;1203;-67
2022/04/07 09:14:19;;;;;;;;;;;20.30;54.80;;;;;;5052687;28;903;-67
2022/04/07 09:16:45;;;;;;;;;;;20.30;54.80;;;;;;5052353;28;1206;-68
2022/04/07 09:19:10;;;;;;;;;;;20.30;54.90;;;;;;5052891;28;835;-68
2022/04/07 09:21:36;;;;;;;;;;;20.20;54.90;;;;;;5052728;28;1311;-68
2022/04/07 09:24:07;;;;;;;;;;;20.20;54.90;;;;;;5052669;28;1959;-68
2022/04/07 09:26:37;;;;;;;;;;;20.20;54.90;;;;;;5035134;28;819;-68
2022/04/07 09:29:07;;;;;;;;;;;20.20;55.00;;;;;;5035098;28;779;-68
2022/04/07 09:31:33;;;;;;;;;;;20.20;55.00;;;;;;5052582;28;1203;-68
2022/04/07 09:33:59;;;;;;;;;;;20.20;55.10;;;;;;5034758;28;1465;-68
2022/04/07 09:36:24;;;;;;;;;;;20.20;55.20;;;;;;5052443;28;1201;-68
2022/04/07 09:38:51;;;;;;;;;;;20.10;55.10;;;;;;5052566;28;855;-68
2022/04/07 09:41:19;;;;;;;;;;;20.10;55.20;;;;;;5052466;28;1301;-67
2022/04/07 09:43:47;;;;;;;;;;;20.10;55.30;;;;;;5034880;28;1898;-68
2022/04/07 09:46:13;;;;;;;;;;;20.10;55.30;;;;;;5052128;28;994;-68
2022/04/07 09:48:39;;;;;;;;;;;20.10;55.30;;;;;;5052538;28;872;-68
2022/04/07 09:51:05;;;;;;;;;;;20.10;55.30;;;;;;5052372;28;1162;-68
2022/04/07 09:53:35;;;;;;;;;;;20.10;55.40;;;;;;5051376;28;815;-70
2022/04/07 09:56:00;;;;;;;;;;;20.00;55.40;;;;;;5051023;28;906;-68
2022/04/07 09:58:26;;;;;;;;;;;20.00;55.40;;;;;;5051481;28;794;-70
2022/04/07 10:00:51;;;;;;;;;;;20.00;55.50;;;;;;5051080;28;1224;-70
2022/04/07 10:03:17;;;;;;;;;;;20.00;55.50;;;;;;5050983;28;1906;-69
2022/04/07 10:05:42;;;;;;;;;;;19.90;55.50;;;;;;5055807;28;878;-69
2022/04/07 10:08:08;;;;;;;;;;;20.00;55.60;;;;;;5055855;28;996;-70
2022/04/07 10:10:34;;;;;;;;;;;19.90;55.60;;;;;;5054491;28;1209;-70
2022/04/07 10:12:59;;;;;;;;;;;19.90;55.60;;;;;;5054701;28;926;-69
2022/04/07 10:15:25;;;;;;;;;;;19.90;55.60;;;;;;5054572;28;1209;-69
2022/04/07 10:17:50;;;;;;;;;;;19.90;55.60;;;;;;5037730;28;698;-67
2022/04/07 10:20:16;;;;;;;;;;;19.90;55.60;;;;;;5037933;28;707;-69
2022/04/07 10:22:45;;;;;;;;;;;19.90;55.70;;;;;;5037752;28;1304;-70
2022/04/07 10:25:10;;;;;;;;;;;19.90;55.70;;;;;;5021086;28;1910;-69
2022/04/07 10:27:40;;;;;;;;;;;19.90;55.70;;;;;;5037458;28;1073;-69
2022/04/07 10:30:10;;;;;;;;;;;19.90;55.70;;;;;;5037706;28;1026;-69
2022/04/07 10:32:36;;;;;;;;;;;19.90;55.70;;;;;;5042100;28;1680;-72
2022/04/07 10:35:02;;;;;;;;;;;19.90;55.70;;;;;;5057028;28;1074;-70
2022/04/07 10:37:41;;;;;;;;;;;19.90;55.70;;;;;;5061287;28;1118;-70
2022/04/07 10:40:25;;;;;;;;;;;19.90;55.70;;;;;;5055172;28;855;-70
2022/04/07 10:43:10;;;;;;;;;;;19.90;55.60;;;;;;5055392;28;1123;-70
2022/04/07 10:45:35;;;;;;;;;;;20.00;55.60;;;;;;5055155;28;2046;-69
2022/04/07 10:48:20;;;;;;;;;;;20.00;55.50;;;;;;5036623;28;819;-71
2022/04/07 10:50:51;;;;;;;;;;;20.00;55.50;;;;;;5055240;28;1184;-71
2022/04/07 10:53:19;;;;;;;;;;;20.00;55.40;;;;;;5041461;28;1729;-71
2022/04/07 10:55:53;;;;;;;;;;;20.10;55.40;;;;;;5037264;28;878;-68
2022/04/07 10:58:20;;;;;;;;;;;20.10;55.40;;;;;;5054756;28;864;-66
2022/04/07 11:00:45;;;;;;;;;;;20.10;55.30;;;;;;5037046;28;1309;-69
2022/04/07 11:03:18;;;;;;;;;;;20.10;55.30;;;;;;5035048;28;1072;-69
2022/04/07 11:05:53;;;;;;;;;;;20.10;55.30;;;;;;5037307;28;859;-68
2022/04/07 11:08:22;;;;;;;;;;;20.10;55.30;;;;;;5026675;28;1882;-68
2022/04/07 11:10:48;;;;;;;;;;;20.10;55.30;;;;;;5054404;28;1331;-68
2022/04/07 11:13:13;;;;;;;;;;;20.10;55.30;;;;;;5054144;28;1166;-68
2022/04/07 11:16:06;;;;;;;;;;;20.10;55.30;;;;;;5019587;28;1131;-68
2022/04/07 11:18:36;;;;;;;;;;;20.10;55.30;;;;;;5046011;28;2164;-70
2022/04/07 11:21:02;;;;;;;;;;;20.10;55.30;;;;;;5036814;28;1298;-70
2022/04/07 11:23:37;;;;;;;;;;;20.10;55.30;;;;;;5036229;28;1965;-70
2022/04/07 11:26:13;;;;;;;;;;;20.10;55.30;;;;;;5054147;28;1091;-70
2022/04/07 11:28:39;;;;;;;;;;;20.10;55.30;;;;;;5036489;28;1256;-69
2022/04/07 11:31:04;;;;;;;;;;;20.10;55.30;;;;;;5036600;28;1235;-70
2022/04/07 11:33:37;;;;;;;;;;;20.10;55.30;;;;;;5036448;28;1158;-69
2022/04/07 11:36:07;;;;;;;;;;;20.10;55.30;;;;;;5035925;28;1200;-69
2022/04/07 11:38:36;;;;;;;;;;;20.10;55.40;;;;;;5052958;28;843;-69
2022/04/07 11:41:05;;;;;;;;;;;20.10;55.40;;;;;;5053015;28;1205;-69
2022/04/07 11:43:31;;;;;;;;;;;20.00;55.40;;;;;;5052850;28;1957;-69
2022/04/07 11:45:56;;;;;;;;;;;20.00;55.40;;;;;;5054426;28;871;-70
2022/04/07 11:48:22;;;;;;;;;;;20.00;55.40;;;;;;5052852;28;1021;-70
2022/04/07 11:50:48;;;;;;;;;;;20.00;55.50;;;;;;5053782;28;1302;-70
2022/04/07 11:53:14;;;;;;;;;;;20.00;55.50;;;;;;5036156;28;818;-69
2022/04/07 11:55:39;;;;;;;;;;;20.00;55.50;;;;;;5035759;28;1025;-70
2022/04/07 11:58:05;;;;;;;;;;;20.00;55.60;;;;;;5035968;28;899;-69
2022/04/07 12:00:31;;;;;;;;;;;20.00;55.60;;;;;;5053666;28;1282;-70
2022/04/07 12:02:57;;;;;;;;;;;20.00;55.60;;;;;;5053763;28;820;-70
2022/04/07 12:05:22;;;;;;;;;;;20.00;55.60;;;;;;5053739;28;1959;-69
2022/04/07 12:07:48;;;;;;;;;;;19.90;55.60;;;;;;5053489;28;866;-68
2022/04/07 12:10:14;;;;;;;;;;;19.90;55.60;;;;;;5055067;28;1794;-69
2022/04/07 12:12:40;;;;;;;;;;;19.90;55.60;;;;;;5052369;28;1183;-70
2022/04/07 12:15:06;;;;;;;;;;;19.90;55.70;;;;;;5035261;28;847;-70
2022/04/07 12:17:34;;;;;;;;;;;19.90;55.70;;;;;;5035858;28;1230;-70
2022/04/07 12:20:00;;;;;;;;;;;19.90;55.70;;;;;;5053283;28;795;-71
2022/04/07 12:22:29;;;;;;;;;;;19.90;55.70;;;;;;5035395;28;1290;-71
2022/04/07 12:25:20;;;;;;;;;;;19.90;55.80;;;;;;5053284;28;1969;-68
2022/04/07 12:27:46;;;;;;;;;;;19.90;55.80;;;;;;5048971;28;1065;-68
2022/04/07 12:30:13;;;;;;;;;;;19.90;55.80;;;;;;5053039;28;828;-68
2022/04/07 12:32:42;;;;;;;;;;;19.90;55.80;;;;;;5035511;28;1246;-68
2022/04/07 12:35:07;;;;;;;;;;;19.90;55.90;;;;;;5035410;28;886;-69
2022/04/07 12:37:33;;;;;;;;;;;19.90;55.90;;;;;;5053017;28;1182;-71
2022/04/07 12:39:59;;;;;;;;;;;19.80;55.90;;;;;;5051953;28;838;-69
2022/04/07 12:42:25;;;;;;;;;;;19.80;55.90;;;;;;5051982;28;1274;-69
2022/04/07 12:44:50;;;;;;;;;;;19.80;55.90;;;;;;5051644;28;2069;-69
2022/04/07 12:47:16;;;;;;;;;;;19.80;55.90;;;;;;5051377;28;1422;-69
2022/04/07 12:49:54;;;;;;;;;;;19.80;56.00;;;;;;5051613;28;867;-69
2022/04/07 12:52:21;;;;;;;;;;;19.80;56.00;;;;;;5041712;28;1313;-68
2022/04/07 12:54:56;;;;;;;;;;;19.80;56.00;;;;;;5052874;28;883;-68
2022/04/07 12:57:22;;;;;;;;;;;19.80;56.00;;;;;;5034707;28;843;-69
2022/04/07 12:59:54;;;;;;;;;;;19.80;56.10;;;;;;5034783;28;1257;-68
2022/04/07 13:02:20;;;;;;;;;;;19.70;56.00;;;;;;5035037;28;1212;-69
2022/04/07 13:04:45;;;;;;;;;;;19.70;56.00;;;;;;5052649;28;1906;-68
2022/04/07 13:07:11;;;;;;;;;;;19.70;56.10;;;;;;5052442;28;807;-68
2022/04/07 13:09:36;;;;;;;;;;;19.70;56.10;;;;;;5052701;28;715;-68
2022/04/07 13:12:02;;;;;;;;;;;19.70;56.10;;;;;;5052334;28;1298;-69
2022/04/07 13:14:27;;;;;;;;;;;19.70;56.10;;;;;;5052902;28;815;-68
2022/04/07 13:16:52;;;;;;;;;;;19.70;56.10;;;;;;5052453;28;1175;-69
2022/04/07 13:19:18;;;;;;;;;;;19.70;56.20;;;;;;5052722;28;919;-68
2022/04/07 13:21:43;;;;;;;;;;;19.70;56.20;;;;;;5052634;28;1225;-68
2022/04/07 13:24:09;;;;;;;;;;;19.70;56.20;;;;;;5052677;28;1910;-68
2022/04/07 13:26:34;;;;;;;;;;;19.70;56.20;;;;;;5052613;28;1002;-69
2022/04/07 13:29:00;;;;;;;;;;;19.60;56.20;;;;;;5052708;28;907;-68
2022/04/07 13:31:25;;;;;;;;;;;19.60;56.20;;;;;;5052559;28;1301;-68
2022/04/07 13:33:51;;;;;;;;;;;19.60;56.20;;;;;;5052503;28;668;-68
2022/04/07 13:36:16;;;;;;;;;;;19.70;56.30;;;;;;5052355;28;1178;-68
2022/04/07 13:38:42;;;;;;;;;;;19.60;56.30;;;;;;5052997;28;820;-67
2022/04/07 13:41:07;;;;;;;;;;;19.60;56.20;;;;;;5038233;28;1333;-68
2022/04/07 13:43:33;;;;;;;;;;;19.70;56.30;;;;;;5056303;28;1929;-68
2022/04/07 13:45:59;;;;;;;;;;;19.60;56.30;;;;;;5038417;28;692;-67
2022/04/07 13:48:25;;;;;;;;;;;19.60;56.30;;;;;;5038428;28;926;-69
2022/04/07 13:50:50;;;;;;;;;;;19.60;56.40;;;;;;5038483;28;1312;-67
2022/04/07 13:53:19;;;;;;;;;;;19.60;56.40;;;;;;5056173;28;911;-68
2022/04/07 13:55:44;;;;;;;;;;;19.60;56.40;;;;;;5054654;28;835;-69
2022/04/07 13:58:10;;;;;;;;;;;19.60;56.40;;;;;;5042894;28;2025;-69
2022/04/07 14:00:35;;;;;;;;;;;19.60;56.40;;;;;;5055713;28;1294;-69
2022/04/07 14:03:01;;;;;;;;;;;19.60;56.40;;;;;;5056038;28;1225;-68
2022/04/07 14:05:26;;;;;;;;;;;19.60;56.40;;;;;;5037869;28;1890;-69
2022/04/07 14:07:52;;;;;;;;;;;19.60;56.50;;;;;;5055573;28;1242;-69
2022/04/07 14:10:17;;;;;;;;;;;19.60;56.50;;;;;;5055538;28;1087;-68
2022/04/07 14:12:43;;;;;;;;;;;19.60;56.50;;;;;;5055635;28;1251;-68
2022/04/07 14:15:09;;;;;;;;;;;19.60;56.60;;;;;;5054536;28;939;-68
2022/04/07 14:17:34;;;;;;;;;;;19.50;56.50;;;;;;5055329;28;1213;-69
2022/04/07 14:19:59;;;;;;;;;;;19.50;56.50;;;;;;5055531;28;850;-68
2022/04/07 14:22:25;;;;;;;;;;;19.50;56.50;;;;;;5055470;28;1241;-68
2022/04/07 14:24:50;;;;;;;;;;;19.50;56.50;;;;;;5055266;28;1959;-68
2022/04/07 14:27:16;;;;;;;;;;;19.50;56.50;;;;;;5055335;28;862;-69